EDLN/MGL METAR and TAF weather

Enter ICAO airport designator
Station Type Date Time Source
EDLN METAR 2018/07/16 19:20 UTC NOAA

EDLN 161920Z 31006KT CAVOK 27/08 Q1012


Station Type Date Time Source
EDLN Decoded METAR 2018/07/16 19:20 UTC NOAA

Monchengladbach, Germany (EDLN) 51-13-49N 006-30-16E
Jul 16, 2018 - 03:20 PM EDT / 2018.07.16 1920 UTC
Wind: from the NW (310 degrees) at 7 MPH (6 KT):0
Visibility: greater than 7 mile(s):0
Temperature: 80 F (27 C)
Dew Point: 46 F (8 C)
Relative Humidity: 30%
Pressure (altimeter): 29.88 in. Hg (1012 hPa)
ob: EDLN 161920Z 31006KT CAVOK 27/08 Q1012
cycle: 19

Station Type Date Time Source
EDLN TAF 2010/02/22 14:20 UTC NOAA

METAR EDLN 221420Z 18010G20KT 090V240 9999 SCT030 BKN045 11/06 Q0986
RMK ATIS R=


Example: see airport list